Time;durP1;ratioP1;P1;durP2;ratioP2;P2;SDS_P1;SDS_P2;PMS_P1;PMS_P2;Temp;Humidity;BMP_temperature;BMP_pressure;BME280_temperature;BME280_humidity;BME280_pressure;Samples;Min_cycle;Max_cycle;Signal;HPM_P1;HPM_P2
2021/11/08 00:00:33;;;;;;;11.68;4.13;;;;;;;;;;5046100;28;20476;-65
2021/11/08 00:03:22;;;;;;;11.88;4.80;;;;;;;;;;5049996;28;20072;-59
2021/11/08 00:06:07;;;;;;;11.88;4.43;;;;;;;;;;5045719;28;20045;-61
2021/11/08 00:08:52;;;;;;;11.57;5.15;;;;;;;;;;5049868;28;20088;-61
2021/11/08 00:11:39;;;;;;;11.98;4.95;;;;;;;;;;5050500;28;20527;-61
2021/11/08 00:14:25;;;;;;;9.73;4.90;;;;;;;;;;5046969;28;20051;-65
2021/11/08 00:20:34;;;;;;;12.07;4.85;;;;;;;;;;5029046;28;20045;-63
2021/11/08 00:23:20;;;;;;;11.63;4.68;;;;;;;;;;5051861;28;20037;-63
2021/11/08 00:26:05;;;;;;;9.73;4.32;;;;;;;;;;5044984;28;20025;-61
2021/11/08 00:28:51;;;;;;;10.52;4.88;;;;;;;;;;5050552;28;21865;-64
2021/11/08 00:31:36;;;;;;;11.43;4.50;;;;;;;;;;5049923;28;20029;-65
2021/11/08 00:34:22;;;;;;;14.02;4.75;;;;;;;;;;5047769;28;20116;-60
2021/11/08 00:37:07;;;;;;;18.42;5.05;;;;;;;;;;5049766;28;20032;-63
2021/11/08 00:39:53;;;;;;;8.48;4.22;;;;;;;;;;5044273;28;20036;-60
2021/11/08 00:42:38;;;;;;;13.45;4.55;;;;;;;;;;5047525;28;20514;-59
2021/11/08 00:45:24;;;;;;;15.27;5.22;;;;;;;;;;5046871;28;20029;-61
2021/11/08 00:48:09;;;;;;;13.32;4.55;;;;;;;;;;5045628;28;20025;-59
2021/11/08 00:50:55;;;;;;;11.00;4.45;;;;;;;;;;5048638;28;20488;-62
2021/11/08 00:53:40;;;;;;;10.43;4.00;;;;;;;;;;5047831;28;20029;-62
2021/11/08 00:56:26;;;;;;;15.55;5.07;;;;;;;;;;5044003;28;20033;-64
2021/11/08 00:59:15;;;;;;;15.40;4.40;;;;;;;;;;5049587;28;20293;-65
2021/11/08 01:02:01;;;;;;;17.63;5.13;;;;;;;;;;5042143;28;20033;-63
2021/11/08 01:04:46;;;;;;;13.50;4.97;;;;;;;;;;5049810;28;20072;-62
2021/11/08 01:07:31;;;;;;;13.80;6.18;;;;;;;;;;5042874;28;20094;-64
2021/11/08 01:10:18;;;;;;;11.02;4.90;;;;;;;;;;5048685;28;20033;-66
2021/11/08 01:13:03;;;;;;;14.10;5.28;;;;;;;;;;5042488;28;20041;-68
2021/11/08 01:15:48;;;;;;;11.20;4.97;;;;;;;;;;5049842;28;20029;-61
2021/11/08 01:18:34;;;;;;;9.27;4.35;;;;;;;;;;5059420;28;20070;-64
2021/11/08 01:21:19;;;;;;;13.23;5.22;;;;;;;;;;5032386;28;20032;-65
2021/11/08 01:24:05;;;;;;;11.02;4.43;;;;;;;;;;5043309;28;20037;-63
2021/11/08 01:26:50;;;;;;;8.38;4.07;;;;;;;;;;5043678;28;20043;-64
2021/11/08 01:29:36;;;;;;;11.23;4.82;;;;;;;;;;5048672;28;20025;-66
2021/11/08 01:32:22;;;;;;;14.30;4.28;;;;;;;;;;5044860;28;20034;-62
2021/11/08 01:35:08;;;;;;;17.85;6.28;;;;;;;;;;5047340;28;20032;-62
2021/11/08 01:38:02;;;;;;;11.63;4.60;;;;;;;;;;5048911;28;20025;-62
2021/11/08 01:40:50;;;;;;;10.52;4.82;;;;;;;;;;5029467;28;20025;-65
2021/11/08 01:43:36;;;;;;;11.65;4.40;;;;;;;;;;5048176;28;20419;-62
2021/11/08 01:46:21;;;;;;;15.65;5.15;;;;;;;;;;5048097;28;20028;-65
2021/11/08 01:49:07;;;;;;;10.02;4.40;;;;;;;;;;5045433;28;20036;-64
2021/11/08 01:51:52;;;;;;;9.10;4.40;;;;;;;;;;5046018;28;20475;-64
2021/11/08 01:54:38;;;;;;;10.55;4.20;;;;;;;;;;5040743;28;20035;-63
2021/11/08 01:57:23;;;;;;;12.55;5.20;;;;;;;;;;5046989;28;20024;-63
2021/11/08 02:00:10;;;;;;;7.80;4.68;;;;;;;;;;5047107;28;20417;-64
2021/11/08 02:02:55;;;;;;;10.70;4.70;;;;;;;;;;5040633;28;20028;-64
2021/11/08 02:05:41;;;;;;;8.50;5.03;;;;;;;;;;5046358;28;20643;-63
2021/11/08 02:08:27;;;;;;;9.85;3.78;;;;;;;;;;5037821;28;20033;-63
2021/11/08 02:11:12;;;;;;;10.35;4.70;;;;;;;;;;5041420;28;20491;-63
2021/11/08 02:13:58;;;;;;;9.43;4.40;;;;;;;;;;5047292;28;20027;-61
2021/11/08 02:16:43;;;;;;;11.18;4.57;;;;;;;;;;5048402;28;20412;-61
2021/11/08 02:19:29;;;;;;;9.45;4.63;;;;;;;;;;5042523;28;20139;-63
2021/11/08 02:22:14;;;;;;;12.95;4.90;;;;;;;;;;5045036;28;20028;-62
2021/11/08 02:24:59;;;;;;;10.20;4.78;;;;;;;;;;5046150;28;20122;-59
2021/11/08 02:27:45;;;;;;;18.08;5.68;;;;;;;;;;5034973;28;20044;-64
2021/11/08 02:30:33;;;;;;;13.10;4.60;;;;;;;;;;5043060;28;20131;-62
2021/11/08 02:33:19;;;;;;;15.40;5.60;;;;;;;;;;5046220;28;20444;-62
2021/11/08 02:36:04;;;;;;;9.48;4.60;;;;;;;;;;5041831;28;20039;-61
2021/11/08 02:38:53;;;;;;;12.35;4.57;;;;;;;;;;5047847;28;20158;-66
2021/11/08 02:41:39;;;;;;;11.02;4.80;;;;;;;;;;5062387;28;20045;-61
2021/11/08 02:44:24;;;;;;;12.00;4.50;;;;;;;;;;5044413;28;20056;-63
2021/11/08 02:47:11;;;;;;;7.72;4.03;;;;;;;;;;5044928;28;20123;-62
2021/11/08 02:49:58;;;;;;;18.63;5.75;;;;;;;;;;5042642;28;20041;-58
2021/11/08 02:52:45;;;;;;;13.65;4.75;;;;;;;;;;5042014;28;20028;-58
2021/11/08 02:55:30;;;;;;;12.20;5.60;;;;;;;;;;5044977;28;20487;-60
2021/11/08 02:58:16;;;;;;;10.20;5.05;;;;;;;;;;5047256;28;20036;-60
2021/11/08 03:01:02;;;;;;;19.98;6.60;;;;;;;;;;5042542;28;20035;-62
2021/11/08 03:03:52;;;;;;;9.00;4.70;;;;;;;;;;5047687;28;20047;-62
2021/11/08 03:06:37;;;;;;;10.48;4.35;;;;;;;;;;5045402;28;20041;-65
2021/11/08 03:09:34;;;;;;;10.48;4.95;;;;;;;;;;5047219;28;20029;-68
2021/11/08 03:12:24;;;;;;;12.52;5.78;;;;;;;;;;5053257;28;20029;-66
2021/11/08 03:15:23;;;;;;;10.70;4.75;;;;;;;;;;5046292;28;20033;-65
2021/11/08 03:18:25;;;;;;;12.05;5.57;;;;;;;;;;5046421;28;20119;-67
2021/11/08 03:21:19;;;;;;;14.02;5.22;;;;;;;;;;5046291;28;20124;-64
2021/11/08 03:24:06;;;;;;;13.52;5.68;;;;;;;;;;5047403;28;20044;-64
2021/11/08 03:26:56;;;;;;;12.55;5.82;;;;;;;;;;5026897;28;20407;-62
2021/11/08 03:29:41;;;;;;;8.40;4.28;;;;;;;;;;5043296;28;20495;-62
2021/11/08 03:32:27;;;;;;;9.05;4.60;;;;;;;;;;5042831;28;20028;-61
2021/11/08 03:35:14;;;;;;;9.45;5.05;;;;;;;;;;5031793;28;20036;-64
2021/11/08 03:38:00;;;;;;;13.55;5.65;;;;;;;;;;5041720;28;20433;-63
2021/11/08 03:40:46;;;;;;;13.07;4.70;;;;;;;;;;5043059;28;20060;-63
2021/11/08 03:43:31;;;;;;;13.77;5.63;;;;;;;;;;5032558;28;20033;-57
2021/11/08 03:46:17;;;;;;;9.57;5.13;;;;;;;;;;5043086;28;20087;-57
2021/11/08 03:49:02;;;;;;;12.43;5.72;;;;;;;;;;5044011;28;20083;-58
2021/11/08 03:51:47;;;;;;;14.90;6.88;;;;;;;;;;5047056;28;20061;-57
2021/11/08 03:54:33;;;;;;;13.45;5.35;;;;;;;;;;5041518;28;20028;-58
2021/11/08 03:57:18;;;;;;;19.15;6.95;;;;;;;;;;5044393;28;20491;-64
2021/11/08 04:00:07;;;;;;;12.10;5.75;;;;;;;;;;5037311;28;20048;-59
2021/11/08 04:02:54;;;;;;;11.82;5.78;;;;;;;;;;5041617;28;20378;-57
2021/11/08 04:05:41;;;;;;;14.32;5.40;;;;;;;;;;5045821;28;20041;-56
2021/11/08 04:08:26;;;;;;;8.77;3.97;;;;;;;;;;5045990;28;20037;-58
2021/11/08 04:11:12;;;;;;;12.90;6.30;;;;;;;;;;5039136;28;20519;-56
2021/11/08 04:13:58;;;;;;;10.50;5.00;;;;;;;;;;5037655;28;20033;-56
2021/11/08 04:16:44;;;;;;;9.93;5.05;;;;;;;;;;5047971;28;20431;-56
2021/11/08 04:19:31;;;;;;;9.18;4.93;;;;;;;;;;5048596;28;20086;-55
2021/11/08 04:22:17;;;;;;;12.35;5.80;;;;;;;;;;5038241;28;20488;-57
2021/11/08 04:25:03;;;;;;;13.15;5.75;;;;;;;;;;5049071;28;20115;-59
2021/11/08 04:27:49;;;;;;;9.88;5.97;;;;;;;;;;5060768;28;20028;-57
2021/11/08 04:30:38;;;;;;;10.77;5.45;;;;;;;;;;5046215;28;20047;-58
2021/11/08 04:33:33;;;;;;;9.70;4.93;;;;;;;;;;5050497;28;20472;-62
2021/11/08 04:42:12;;;;;;;8.82;5.65;;;;;;;;;;5047337;28;20119;-63
2021/11/08 04:54:19;;;;;;;10.88;4.60;;;;;;;;;;5033011;28;20037;-62
2021/11/08 04:57:28;;;;;;;10.52;4.88;;;;;;;;;;5048374;28;20029;-63
2021/11/08 05:21:58;;;;;;;13.75;5.72;;;;;;;;;;5056814;28;20028;-60
2021/11/08 05:25:03;;;;;;;10.07;5.10;;;;;;;;;;5046915;28;20040;-62
2021/11/08 05:28:07;;;;;;;10.63;5.25;;;;;;;;;;5044558;28;20399;-61
2021/11/08 05:30:52;;;;;;;9.48;4.93;;;;;;;;;;5048363;28;20039;-63
2021/11/08 05:33:37;;;;;;;14.40;5.63;;;;;;;;;;5040196;28;20025;-64
2021/11/08 05:36:22;;;;;;;12.63;4.68;;;;;;;;;;5047463;28;20021;-64
2021/11/08 05:39:08;;;;;;;13.25;5.43;;;;;;;;;;5049410;28;20049;-61
2021/11/08 05:41:55;;;;;;;10.30;4.97;;;;;;;;;;5046649;28;20029;-62
2021/11/08 05:44:41;;;;;;;11.13;4.95;;;;;;;;;;5042883;28;20119;-63
2021/11/08 05:47:26;;;;;;;9.48;5.00;;;;;;;;;;5045075;28;20485;-60
2021/11/08 05:50:13;;;;;;;8.82;4.80;;;;;;;;;;5048188;28;20061;-62
2021/11/08 05:52:58;;;;;;;12.25;5.18;;;;;;;;;;5044280;28;20036;-62
2021/11/08 05:55:51;;;;;;;28.38;6.65;;;;;;;;;;5045203;28;20392;-65
2021/11/08 06:50:59;;;;;;;9.25;4.80;;;;;;;;;;5047339;28;20025;-61
2021/11/08 06:53:46;;;;;;;11.20;5.50;;;;;;;;;;5042359;28;20476;-61
2021/11/08 06:56:38;;;;;;;13.20;6.22;;;;;;;;;;5043254;28;20525;-60
2021/11/08 06:59:25;;;;;;;10.07;5.15;;;;;;;;;;5042517;28;20033;-62
2021/11/08 07:02:11;;;;;;;10.52;5.57;;;;;;;;;;5059406;28;20047;-64
2021/11/08 07:04:56;;;;;;;20.00;6.47;;;;;;;;;;5044872;28;20114;-59
2021/11/08 07:07:41;;;;;;;23.15;11.52;;;;;;;;;;5036516;28;20040;-60
2021/11/08 07:10:27;;;;;;;17.10;8.00;;;;;;;;;;5044554;28;20036;-59
2021/11/08 07:13:12;;;;;;;12.07;5.93;;;;;;;;;;5042942;28;20037;-60
2021/11/08 07:15:57;;;;;;;16.48;7.65;;;;;;;;;;5046668;28;20033;-60
2021/11/08 07:18:43;;;;;;;15.70;6.35;;;;;;;;;;5044230;28;20021;-63
2021/11/08 07:21:28;;;;;;;13.93;5.97;;;;;;;;;;5046093;28;20094;-60
2021/11/08 07:24:14;;;;;;;12.57;6.63;;;;;;;;;;5047063;28;20065;-60
2021/11/08 07:26:59;;;;;;;13.40;6.32;;;;;;;;;;5041845;28;20130;-60
2021/11/08 07:29:45;;;;;;;14.23;6.43;;;;;;;;;;5047585;28;20036;-59
2021/11/08 07:32:30;;;;;;;11.77;6.38;;;;;;;;;;5041788;28;20040;-59
2021/11/08 07:35:16;;;;;;;14.20;6.05;;;;;;;;;;5043606;28;20025;-62
2021/11/08 07:38:01;;;;;;;12.05;6.97;;;;;;;;;;5042973;28;20365;-61
2021/11/08 07:40:47;;;;;;;12.15;6.47;;;;;;;;;;5039617;28;20122;-59
2021/11/08 07:43:32;;;;;;;13.27;5.78;;;;;;;;;;5043164;28;20451;-58
2021/11/08 07:46:17;;;;;;;18.02;10.93;;;;;;;;;;5041701;28;20040;-60
2021/11/08 07:49:03;;;;;;;14.35;7.50;;;;;;;;;;5042313;28;20505;-57
2021/11/08 07:51:49;;;;;;;12.45;6.47;;;;;;;;;;5043877;28;20025;-58
2021/11/08 07:54:36;;;;;;;14.77;6.78;;;;;;;;;;5046586;28;20035;-56
2021/11/08 07:57:22;;;;;;;12.43;6.72;;;;;;;;;;5046348;28;20078;-66
2021/11/08 08:00:08;;;;;;;12.30;5.97;;;;;;;;;;5052268;28;20064;-62
2021/11/08 08:02:55;;;;;;;15.73;6.78;;;;;;;;;;5048861;28;20040;-63
2021/11/08 08:05:40;;;;;;;12.98;5.75;;;;;;;;;;5046469;28;20103;-62
2021/11/08 08:08:26;;;;;;;12.07;7.05;;;;;;;;;;5034614;28;20404;-62
2021/11/08 08:11:11;;;;;;;11.63;6.82;;;;;;;;;;5024992;28;20040;-64
2021/11/08 08:13:57;;;;;;;14.90;6.18;;;;;;;;;;5048380;28;20127;-63
2021/11/08 08:16:42;;;;;;;12.55;6.75;;;;;;;;;;5047947;28;20464;-57
2021/11/08 08:19:27;;;;;;;17.80;7.63;;;;;;;;;;5044409;28;20053;-60
2021/11/08 08:22:13;;;;;;;18.15;7.40;;;;;;;;;;5050948;28;20051;-60
2021/11/08 08:24:58;;;;;;;27.85;16.45;;;;;;;;;;5049763;28;20044;-59
2021/11/08 08:27:44;;;;;;;53.25;33.13;;;;;;;;;;5047894;28;20047;-60
2021/11/08 08:30:29;;;;;;;14.63;8.23;;;;;;;;;;5049069;28;20476;-63
2021/11/08 08:33:15;;;;;;;17.55;7.97;;;;;;;;;;5045801;28;20361;-60
2021/11/08 08:36:01;;;;;;;57.72;12.68;;;;;;;;;;5044883;28;20021;-62
2021/11/08 08:38:47;;;;;;;58.88;14.63;;;;;;;;;;5044094;28;20483;-59
2021/11/08 08:41:32;;;;;;;26.27;7.57;;;;;;;;;;5048864;28;20037;-59
2021/11/08 08:44:18;;;;;;;16.20;6.70;;;;;;;;;;5047319;28;20063;-62
2021/11/08 08:47:03;;;;;;;14.10;7.03;;;;;;;;;;5052845;28;20017;-59
2021/11/08 08:49:48;;;;;;;11.95;6.28;;;;;;;;;;5048196;28;20033;-60
2021/11/08 08:52:34;;;;;;;19.00;7.68;;;;;;;;;;5045662;28;20432;-60
2021/11/08 08:55:20;;;;;;;11.88;5.90;;;;;;;;;;5042682;28;20495;-59
2021/11/08 08:58:06;;;;;;;13.50;6.57;;;;;;;;;;5046575;28;20033;-63
2021/11/08 09:00:52;;;;;;;15.50;7.35;;;;;;;;;;5045868;28;20170;-63
2021/11/08 09:03:37;;;;;;;17.83;7.88;;;;;;;;;;5057956;28;20094;-59
2021/11/08 09:06:23;;;;;;;19.77;7.65;;;;;;;;;;5046289;28;20048;-59
2021/11/08 09:09:09;;;;;;;23.67;9.48;;;;;;;;;;5048246;28;20036;-60
2021/11/08 09:11:54;;;;;;;44.80;28.55;;;;;;;;;;5045461;28;20097;-60
2021/11/08 09:14:39;;;;;;;18.77;9.23;;;;;;;;;;5060733;28;20041;-66
2021/11/08 09:17:24;;;;;;;21.17;8.80;;;;;;;;;;5049004;28;20029;-63
2021/11/08 09:20:10;;;;;;;97.30;20.83;;;;;;;;;;5047320;28;20507;-66
2021/11/08 09:22:56;;;;;;;64.10;15.75;;;;;;;;;;5049214;28;20192;-65
2021/11/08 09:25:41;;;;;;;29.23;9.55;;;;;;;;;;5043481;28;20388;-65
2021/11/08 09:28:27;;;;;;;18.30;8.57;;;;;;;;;;5048201;28;20468;-65
2021/11/08 09:31:12;;;;;;;21.52;8.15;;;;;;;;;;5045902;28;20108;-57
2021/11/08 09:34:03;;;;;;;21.45;10.13;;;;;;;;;;5048572;28;20155;-56
2021/11/08 09:36:50;;;;;;;23.20;10.52;;;;;;;;;;5039737;28;20032;-59
2021/11/08 09:39:35;;;;;;;21.13;10.25;;;;;;;;;;5045591;28;20091;-57
2021/11/08 09:42:21;;;;;;;19.63;9.10;;;;;;;;;;5031121;28;20051;-58
2021/11/08 09:45:06;;;;;;;20.35;9.52;;;;;;;;;;5048611;28;20025;-61
2021/11/08 09:47:52;;;;;;;22.05;8.25;;;;;;;;;;5040031;28;20034;-63
2021/11/08 09:50:38;;;;;;;14.38;7.82;;;;;;;;;;5047040;28;20063;-64
2021/11/08 09:53:23;;;;;;;21.50;8.02;;;;;;;;;;5048206;28;20061;-65
2021/11/08 09:56:09;;;;;;;24.13;7.57;;;;;;;;;;5046245;28;20036;-64
2021/11/08 09:58:56;;;;;;;25.95;10.10;;;;;;;;;;5043680;28;20029;-63
2021/11/08 10:01:42;;;;;;;28.55;7.95;;;;;;;;;;5042851;28;20093;-64
2021/11/08 10:04:28;;;;;;;25.42;7.95;;;;;;;;;;5040754;28;20045;-63
2021/11/08 10:07:14;;;;;;;24.25;9.00;;;;;;;;;;5046333;28;20110;-61
2021/11/08 10:10:00;;;;;;;19.05;9.15;;;;;;;;;;5046534;28;20029;-67
2021/11/08 10:12:48;;;;;;;16.90;8.38;;;;;;;;;;5046439;28;20029;-66
2021/11/08 10:15:35;;;;;;;18.07;7.20;;;;;;;;;;5027286;28;20021;-65
2021/11/08 10:18:20;;;;;;;23.95;9.00;;;;;;;;;;5042208;28;20296;-67
2021/11/08 10:21:08;;;;;;;19.85;6.90;;;;;;;;;;5046924;28;20029;-68
2021/11/08 10:23:55;;;;;;;16.30;6.93;;;;;;;;;;5045701;28;20478;-63
2021/11/08 10:26:41;;;;;;;18.33;8.57;;;;;;;;;;5046417;28;20024;-66
2021/11/08 10:29:27;;;;;;;11.90;5.72;;;;;;;;;;5046841;28;20048;-68
2021/11/08 10:32:12;;;;;;;19.73;6.57;;;;;;;;;;5041399;28;20028;-70
2021/11/08 10:34:58;;;;;;;21.45;7.15;;;;;;;;;;5043302;28;20514;-66
2021/11/08 10:37:43;;;;;;;1999.90;999.90;;;;;;;;;;5046722;28;20031;-65
2021/11/08 10:40:37;;;;;;;1999.90;999.90;;;;;;;;;;5042777;28;20040;-66
2021/11/08 10:43:29;;;;;;;26.85;24.05;;;;;;;;;;5042650;28;20205;-60
2021/11/08 10:46:17;;;;;;;32.63;8.77;;;;;;;;;;5042996;28;20025;-64
2021/11/08 10:49:04;;;;;;;25.13;8.10;;;;;;;;;;5042850;28;20057;-61
2021/11/08 10:51:57;;;;;;;21.77;7.82;;;;;;;;;;5044337;28;20051;-63
2021/11/08 10:54:45;;;;;;;21.42;8.18;;;;;;;;;;5044549;28;20606;-63
2021/11/08 10:57:31;;;;;;;20.05;6.78;;;;;;;;;;5039037;28;20044;-63
2021/11/08 11:00:16;;;;;;;19.90;7.72;;;;;;;;;;5043570;28;20028;-59
2021/11/08 11:03:11;;;;;;;16.30;6.93;;;;;;;;;;5035887;28;20381;-64
2021/11/08 11:06:05;;;;;;;23.50;8.52;;;;;;;;;;5040117;28;20052;-60
2021/11/08 11:08:51;;;;;;;40.00;20.25;;;;;;;;;;5055034;28;20490;-59
2021/11/08 11:11:37;;;;;;;19.52;6.30;;;;;;;;;;5045223;28;20090;-59
2021/11/08 11:14:32;;;;;;;13.18;5.80;;;;;;;;;;5041802;28;20375;-60
2021/11/08 11:17:24;;;;;;;16.20;5.18;;;;;;;;;;5043344;28;20028;-59
2021/11/08 11:20:19;;;;;;;14.52;6.03;;;;;;;;;;5043403;28;20108;-61
2021/11/08 11:23:17;;;;;;;21.02;6.47;;;;;;;;;;5053656;28;20033;-61
2021/11/08 11:26:05;;;;;;;15.40;5.00;;;;;;;;;;5041215;28;20029;-63
2021/11/08 11:28:50;;;;;;;15.90;5.68;;;;;;;;;;5048140;28;20124;-63
2021/11/08 11:31:37;;;;;;;16.13;5.97;;;;;;;;;;5035829;28;20046;-61
2021/11/08 11:34:23;;;;;;;20.17;6.18;;;;;;;;;;5050944;28;20025;-60
2021/11/08 11:37:15;;;;;;;20.88;7.70;;;;;;;;;;5045044;28;20036;-62
2021/11/08 11:40:04;;;;;;;17.35;6.65;;;;;;;;;;5046032;28;20480;-67
2021/11/08 11:42:57;;;;;;;13.15;6.13;;;;;;;;;;5047470;28;20627;-66
2021/11/08 11:45:48;;;;;;;14.52;6.10;;;;;;;;;;5043541;28;20182;-69
2021/11/08 11:48:34;;;;;;;22.13;7.55;;;;;;;;;;5047348;28;20112;-68
2021/11/08 11:51:27;;;;;;;19.02;6.10;;;;;;;;;;5046156;28;20029;-67
2021/11/08 11:54:13;;;;;;;20.20;7.10;;;;;;;;;;5049094;28;20025;-67
2021/11/08 11:56:59;;;;;;;17.25;6.25;;;;;;;;;;5047708;28;20112;-62
2021/11/08 11:59:45;;;;;;;13.15;6.43;;;;;;;;;;5034531;28;20031;-65
2021/11/08 12:02:30;;;;;;;12.90;5.53;;;;;;;;;;5041815;28;20091;-66
2021/11/08 12:05:15;;;;;;;15.50;6.35;;;;;;;;;;5047621;28;20057;-71
2021/11/08 12:08:02;;;;;;;15.57;5.75;;;;;;;;;;5048893;28;20040;-66
2021/11/08 12:10:50;;;;;;;20.40;6.90;;;;;;;;;;5048708;28;20113;-64
2021/11/08 12:13:40;;;;;;;21.65;6.07;;;;;;;;;;5044607;28;20457;-62
2021/11/08 12:16:28;;;;;;;12.65;4.95;;;;;;;;;;5044146;28;20603;-57
2021/11/08 12:19:16;;;;;;;19.38;5.90;;;;;;;;;;5044630;28;20037;-62
2021/11/08 12:22:16;;;;;;;16.95;4.95;;;;;;;;;;5045366;28;20041;-61
2021/11/08 12:25:03;;;;;;;21.42;5.72;;;;;;;;;;5043304;28;20055;-63
2021/11/08 12:27:50;;;;;;;18.98;5.47;;;;;;;;;;5043059;28;20041;-59
2021/11/08 12:30:38;;;;;;;16.75;5.25;;;;;;;;;;5047853;28;20115;-61
2021/11/08 12:33:28;;;;;;;17.60;4.60;;;;;;;;;;5047871;28;20025;-62
2021/11/08 12:36:15;;;;;;;18.35;5.93;;;;;;;;;;5049273;28;20029;-62
2021/11/08 12:39:04;;;;;;;19.80;4.80;;;;;;;;;;5046228;28;20029;-60
2021/11/08 12:41:51;;;;;;;10.45;4.30;;;;;;;;;;5048507;28;20021;-62
2021/11/08 12:44:39;;;;;;;15.85;4.88;;;;;;;;;;5045746;28;20510;-62
2021/11/08 12:47:28;;;;;;;16.38;4.57;;;;;;;;;;5048885;28;20443;-64
2021/11/08 12:50:14;;;;;;;18.55;4.43;;;;;;;;;;5048107;28;20546;-62
2021/11/08 12:52:59;;;;;;;16.33;4.75;;;;;;;;;;5047768;28;20035;-64
2021/11/08 12:55:44;;;;;;;18.10;4.40;;;;;;;;;;5044963;28;20118;-62
2021/11/08 12:58:31;;;;;;;14.70;4.72;;;;;;;;;;5043794;28;20408;-64
2021/11/08 13:01:20;;;;;;;13.73;4.50;;;;;;;;;;5048485;28;20129;-62
2021/11/08 13:04:06;;;;;;;16.60;5.72;;;;;;;;;;5048423;28;20037;-61
2021/11/08 13:06:51;;;;;;;16.98;4.78;;;;;;;;;;5048467;28;20041;-62
2021/11/08 13:09:42;;;;;;;17.90;5.00;;;;;;;;;;5046814;28;20076;-62
2021/11/08 13:12:41;;;;;;;11.82;4.60;;;;;;;;;;5047389;28;20112;-61
2021/11/08 13:15:28;;;;;;;18.58;8.18;;;;;;;;;;5046227;28;20036;-62
2021/11/08 13:18:13;;;;;;;17.60;6.68;;;;;;;;;;5045344;28;20032;-60
2021/11/08 13:20:58;;;;;;;15.23;4.70;;;;;;;;;;5047084;28;20020;-61
2021/11/08 13:23:44;;;;;;;16.98;3.97;;;;;;;;;;5047278;28;20472;-61
2021/11/08 13:26:29;;;;;;;17.77;4.20;;;;;;;;;;5037526;28;20063;-61
2021/11/08 13:29:16;;;;;;;17.85;5.25;;;;;;;;;;5041861;28;20396;-61
2021/11/08 13:32:09;;;;;;;9.70;3.53;;;;;;;;;;5043010;28;20050;-61
2021/11/08 13:34:55;;;;;;;15.63;4.30;;;;;;;;;;5030986;28;20033;-61
2021/11/08 13:37:42;;;;;;;14.32;4.20;;;;;;;;;;5046508;28;20067;-60
2021/11/08 13:40:28;;;;;;;14.38;4.55;;;;;;;;;;5043209;28;20025;-61
2021/11/08 13:43:21;;;;;;;14.85;3.65;;;;;;;;;;5047452;28;20045;-61
2021/11/08 13:46:09;;;;;;;16.45;4.10;;;;;;;;;;5039945;28;20027;-61
2021/11/08 13:48:55;;;;;;;13.52;4.00;;;;;;;;;;5045598;28;20041;-65
2021/11/08 13:51:44;;;;;;;29.98;15.10;;;;;;;;;;5041435;28;20025;-67
2021/11/08 13:54:31;;;;;;;25.85;12.48;;;;;;;;;;5043916;28;20111;-69
2021/11/08 13:57:18;;;;;;;14.98;4.53;;;;;;;;;;5045875;28;20055;-67
2021/11/08 14:00:05;;;;;;;18.63;4.68;;;;;;;;;;5047400;28;20491;-66
2021/11/08 14:02:50;;;;;;;9.90;3.33;;;;;;;;;;5043733;28;20029;-67
2021/11/08 14:05:44;;;;;;;14.45;3.20;;;;;;;;;;5045710;28;20029;-60
2021/11/08 14:08:29;;;;;;;9.65;3.55;;;;;;;;;;5052898;28;20542;-57
2021/11/08 14:11:30;;;;;;;8.55;3.28;;;;;;;;;;5043619;28;20037;-57
2021/11/08 14:14:20;;;;;;;15.00;3.90;;;;;;;;;;5047710;28;20021;-57
2021/11/08 14:17:08;;;;;;;14.60;4.13;;;;;;;;;;5045413;28;20036;-57
2021/11/08 14:19:55;;;;;;;14.60;4.18;;;;;;;;;;5045259;28;21261;-58
2021/11/08 14:22:42;;;;;;;16.25;4.60;;;;;;;;;;5043997;28;20580;-59
2021/11/08 14:25:27;;;;;;;16.63;4.78;;;;;;;;;;5042532;28;20087;-63
2021/11/08 14:28:12;;;;;;;17.40;5.25;;;;;;;;;;5045833;28;20060;-59
2021/11/08 14:30:57;;;;;;;19.08;5.85;;;;;;;;;;5050612;28;20384;-61
2021/11/08 14:33:43;;;;;;;14.52;5.70;;;;;;;;;;5039982;28;20108;-60
2021/11/08 14:36:32;;;;;;;17.65;9.85;;;;;;;;;;5043881;28;20495;-60
2021/11/08 14:39:19;;;;;;;14.60;5.85;;;;;;;;;;5043534;28;20120;-58
2021/11/08 14:42:05;;;;;;;20.80;4.78;;;;;;;;;;5045958;28;20044;-60
2021/11/08 14:44:52;;;;;;;13.95;5.03;;;;;;;;;;5042014;28;20464;-61
2021/11/08 14:47:37;;;;;;;17.10;4.28;;;;;;;;;;5045591;28;20036;-61
2021/11/08 14:50:27;;;;;;;16.98;4.70;;;;;;;;;;5061982;28;20035;-60
2021/11/08 14:53:12;;;;;;;16.10;5.40;;;;;;;;;;5041040;28;20137;-60
2021/11/08 14:55:57;;;;;;;16.45;4.75;;;;;;;;;;5044372;28;20040;-60
2021/11/08 14:58:52;;;;;;;16.33;4.43;;;;;;;;;;5046047;28;20387;-61
2021/11/08 15:01:39;;;;;;;13.00;3.95;;;;;;;;;;5042273;28;20458;-64
2021/11/08 15:04:25;;;;;;;12.32;3.75;;;;;;;;;;5045729;28;20043;-62
2021/11/08 15:07:10;;;;;;;13.18;4.18;;;;;;;;;;5032444;28;20045;-64
2021/11/08 15:09:56;;;;;;;10.32;4.07;;;;;;;;;;5032804;28;20094;-64
2021/11/08 15:12:42;;;;;;;9.50;3.50;;;;;;;;;;5047048;28;20036;-60
2021/11/08 15:15:30;;;;;;;12.23;3.55;;;;;;;;;;5034941;28;20082;-63
2021/11/08 15:18:16;;;;;;;9.52;3.38;;;;;;;;;;5034921;28;20483;-59
2021/11/08 15:21:03;;;;;;;9.55;3.35;;;;;;;;;;5032540;28;20040;-60
2021/11/08 15:23:49;;;;;;;12.90;4.05;;;;;;;;;;5046219;28;20472;-59
2021/11/08 15:26:34;;;;;;;7.80;2.85;;;;;;;;;;5031090;28;20017;-60
2021/11/08 15:29:24;;;;;;;10.32;3.80;;;;;;;;;;5041575;28;20037;-61
2021/11/08 15:32:13;;;;;;;17.67;9.10;;;;;;;;;;5047131;28;20033;-62
2021/11/08 15:35:13;;;;;;;24.80;12.33;;;;;;;;;;5041390;28;20033;-60
2021/11/08 15:38:00;;;;;;;13.20;4.15;;;;;;;;;;5034578;28;20338;-63
2021/11/08 15:40:46;;;;;;;13.27;3.85;;;;;;;;;;5043224;28;20025;-60
2021/11/08 15:43:32;;;;;;;13.90;3.80;;;;;;;;;;5024294;28;20033;-60
2021/11/08 15:46:17;;;;;;;15.77;4.85;;;;;;;;;;5045621;28;20043;-59
2021/11/08 15:49:08;;;;;;;13.75;4.28;;;;;;;;;;5045410;28;20033;-58
2021/11/08 15:51:55;;;;;;;11.32;3.80;;;;;;;;;;5024775;28;20033;-58
2021/11/08 15:54:40;;;;;;;15.65;4.38;;;;;;;;;;5037947;28;20065;-65
2021/11/08 15:57:25;;;;;;;13.35;3.88;;;;;;;;;;5043214;28;20032;-62
2021/11/08 16:00:11;;;;;;;11.88;3.75;;;;;;;;;;5041455;28;20495;-64
2021/11/08 16:02:56;;;;;;;14.38;4.50;;;;;;;;;;5024292;28;20120;-62
2021/11/08 16:05:43;;;;;;;15.50;4.50;;;;;;;;;;5043816;28;20678;-63
2021/11/08 16:08:28;;;;;;;12.15;4.00;;;;;;;;;;5041926;28;20516;-61
2021/11/08 16:11:13;;;;;;;12.55;3.95;;;;;;;;;;5044270;28;20020;-64
2021/11/08 16:13:59;;;;;;;13.70;4.47;;;;;;;;;;5044530;28;20093;-61
2021/11/08 16:16:46;;;;;;;14.65;4.43;;;;;;;;;;5048665;28;20020;-61
2021/11/08 16:19:31;;;;;;;15.70;4.68;;;;;;;;;;5060370;28;20036;-61
2021/11/08 16:22:17;;;;;;;15.60;4.28;;;;;;;;;;5036117;28;20036;-61
2021/11/08 16:25:03;;;;;;;15.55;4.85;;;;;;;;;;5047513;28;20439;-63
2021/11/08 16:27:48;;;;;;;15.02;4.53;;;;;;;;;;5037410;28;20084;-62
2021/11/08 16:30:34;;;;;;;12.40;5.78;;;;;;;;;;5044320;28;20022;-62
2021/11/08 16:33:30;;;;;;;15.95;5.93;;;;;;;;;;5047962;28;20033;-59
2021/11/08 16:36:16;;;;;;;13.85;6.35;;;;;;;;;;5042966;28;20061;-59
2021/11/08 16:39:02;;;;;;;18.67;5.72;;;;;;;;;;5045331;28;20112;-59
2021/11/08 16:41:47;;;;;;;15.82;5.75;;;;;;;;;;5045958;28;20028;-60
2021/11/08 16:44:33;;;;;;;12.20;5.15;;;;;;;;;;5045906;28;20056;-58
2021/11/08 16:47:19;;;;;;;17.02;4.78;;;;;;;;;;5046032;28;20048;-59
2021/11/08 16:50:04;;;;;;;14.00;5.03;;;;;;;;;;5045060;28;20089;-65
2021/11/08 16:52:50;;;;;;;14.27;4.63;;;;;;;;;;5041946;28;20588;-65
2021/11/08 16:55:35;;;;;;;15.02;5.57;;;;;;;;;;5048073;28;20088;-63
2021/11/08 16:58:21;;;;;;;17.88;5.70;;;;;;;;;;5047050;28;20066;-62
2021/11/08 17:01:07;;;;;;;14.27;4.95;;;;;;;;;;5039485;28;20040;-63
2021/11/08 17:03:52;;;;;;;13.88;5.03;;;;;;;;;;5045103;28;20036;-64
2021/11/08 17:06:41;;;;;;;18.90;6.35;;;;;;;;;;5046642;28;20572;-63
2021/11/08 17:15:48;;;;;;;38.75;21.40;;;;;;;;;;5038066;28;20017;-61
2021/11/08 17:18:33;;;;;;;16.10;9.00;;;;;;;;;;5044314;28;20032;-62
2021/11/08 17:21:19;;;;;;;13.80;5.90;;;;;;;;;;5046613;28;20104;-60
2021/11/08 17:24:05;;;;;;;16.65;5.25;;;;;;;;;;5047954;28;20041;-63
2021/11/08 17:26:50;;;;;;;18.45;6.15;;;;;;;;;;5040454;28;20522;-65
2021/11/08 17:29:36;;;;;;;22.20;5.65;;;;;;;;;;5047840;28;20425;-65
2021/11/08 17:32:22;;;;;;;17.10;5.72;;;;;;;;;;5046148;28;20025;-67
2021/11/08 17:35:08;;;;;;;14.27;6.28;;;;;;;;;;5047402;28;20033;-66
2021/11/08 17:37:55;;;;;;;19.02;5.25;;;;;;;;;;5046037;28;20025;-67
2021/11/08 17:40:40;;;;;;;14.93;5.97;;;;;;;;;;5044984;28;20056;-66
2021/11/08 17:43:25;;;;;;;15.85;5.97;;;;;;;;;;5045618;28;20079;-66
2021/11/08 17:46:10;;;;;;;12.73;5.50;;;;;;;;;;5059927;28;20035;-62
2021/11/08 17:48:57;;;;;;;16.30;6.93;;;;;;;;;;5040743;28;20094;-61
2021/11/08 17:51:42;;;;;;;15.85;6.70;;;;;;;;;;5041555;28;20036;-62
2021/11/08 17:54:27;;;;;;;13.35;6.97;;;;;;;;;;5048723;28;20155;-63
2021/11/08 17:57:13;;;;;;;17.73;7.47;;;;;;;;;;5045921;28;20098;-64
2021/11/08 17:59:59;;;;;;;16.88;6.30;;;;;;;;;;5046933;28;20067;-63
2021/11/08 18:02:46;;;;;;;12.38;5.90;;;;;;;;;;5043666;28;20045;-60
2021/11/08 18:05:31;;;;;;;17.30;6.68;;;;;;;;;;5045522;28;20057;-65